Latest Weather Observations for Cummins Airport

IDS60801

Issued at 9:35 pm CST Thursday 24 July 2014 (issued every 30 minutes, with the page automatically refreshed every 10 minutes)

About weather observations | Map of weather stations | Latest weather observations for SA | Other Formats
Station Details ID: 018217 Name: CUMMINS AERO Lat: -34.25 Lon: 135.71 Height: 60.11 m
Data from the previous 72 hours. | See also: Recent months at Cummins Airport
Date/Time
CST
Temp
°C
App
Temp
°C
Dew
Point
Rel
Hum
%
Delta-T
°C
Wind Press
QNH
hPa
Press
MSL
hPa
Rain
since 9 am
mm
Dir
 
Spd
km/h
Gust
km/h
Spd
kts
Gust
kts
24/09:30pm 10.6 8.3 10.6 100 0.0 NW 13 17 7 9 1014.0 1014.0 0.2
24/09:00pm 10.5 7.8 10.5 100 0.0 NW 15 17 8 9 1013.6 1013.6 0.2
24/08:30pm 10.2 8.2 10.2 100 0.0 WNW 11 13 6 7 1013.3 1013.3 0.2
24/08:00pm 11.1 9.4 11.1 100 0.0 WNW 11 13 6 7 1013.0 - 0.2
24/07:30pm 11.7 10.1 11.7 100 0.0 WNW 11 15 6 8 1012.8 1012.8 0.2
24/07:00pm 11.7 9.8 11.7 100 0.0 W 13 17 7 9 1012.5 - 0.2
24/06:30pm 11.7 9.4 11.7 100 0.0 WNW 15 19 8 10 1012.1 1012.1 0.2
24/06:00pm 12.3 9.8 12.3 100 0.0 W 17 20 9 11 1011.6 1011.6 0.2
24/05:30pm 12.5 10.4 12.5 100 0.0 WNW 15 20 8 11 1011.4 1011.4 0.2
24/05:00pm 12.5 9.7 12.5 100 0.0 W 19 28 10 15 1011.0 - 0.2
24/04:30pm 12.6 9.2 12.6 100 0.0 WNW 22 30 12 16 1010.7 1010.8 0.2
24/04:00pm 13.8 9.8 11.8 88 1.1 W 24 33 13 18 1010.2 - 0.2
24/03:30pm 14.7 8.0 11.1 79 1.9 W 37 50 20 27 1009.8 1009.9 0.2
24/03:25pm 14.7 9.1 11.5 81 1.7 W 32 50 17 27 1009.7 - 0.2
24/03:00pm 14.9 9.3 12.2 84 1.5 W 33 43 18 23 1009.4 1009.5 0.2
24/02:30pm 14.6 9.3 12.6 88 1.1 W 32 46 17 25 1009.1 1009.2 0.2
24/02:00pm 14.0 8.5 12.6 91 0.8 W 33 43 18 23 1009.1 - 0.2
24/01:30pm 14.9 9.7 12.8 87 1.2 W 32 43 17 23 1009.0 1009.1 0.2
24/01:00pm 14.7 9.7 13.4 92 0.7 W 32 41 17 22 1009.0 - 0.2
24/12:30pm 14.0 9.8 13.5 97 0.3 WNW 28 35 15 19 1009.3 1009.4 0.2
24/12:00pm 14.1 8.6 11.8 86 1.2 W 32 43 17 23 1009.5 1009.6 0.2
24/11:30am 14.1 9.3 12.8 92 0.7 W 30 41 16 22 1009.7 1009.8 0.2
24/11:00am 14.0 8.8 12.7 92 0.7 W 32 46 17 25 1009.5 - 0.2
24/10:30am 14.2 9.7 13.7 97 0.3 W 30 41 16 22 1009.4 1009.5 0.2
24/10:00am 13.8 9.6 13.6 99 0.1 W 28 33 15 18 1009.1 - 0.2
24/09:30am 12.8 9.5 12.8 100 0.0 W 22 28 12 15 1008.8 1008.9 0.2
24/09:00am 12.0 10.2 12.0 100 0.0 NW 13 24 7 13 1008.5 1008.6 14.2
24/08:30am 10.7 9.2 10.7 100 0.0 NW 9 11 5 6 1008.0 1008.1 14.2
24/08:00am 10.4 8.9 10.4 100 0.0 WNW 9 11 5 6 1007.6 - 14.2
24/07:30am 10.4 8.9 10.4 100 0.0 WNW 9 11 5 6 1007.0 1007.1 14.2
24/07:00am 10.5 9.4 10.5 100 0.0 WNW 7 9 4 5 1006.7 - 14.2
24/06:30am 8.7 7.3 8.7 100 0.0 N 6 7 3 4 1006.4 1006.5 14.2
24/06:00am 7.6 5.7 7.6 100 0.0 N 7 9 4 5 1006.2 1006.3 14.2
24/05:30am 7.1 5.3 7.1 100 0.0 N 6 7 3 4 1005.9 1006.0 14.2
24/05:00am 8.3 6.6 8.3 100 0.0 NW 7 9 4 5 1005.7 - 14.2
24/04:30am 8.7 6.7 8.7 100 0.0 NW 9 13 5 7 1005.3 1005.4 14.2
24/04:00am 8.9 6.2 8.9 100 0.0 NW 13 15 7 8 1005.1 - 14.2
24/03:30am 9.3 7.1 9.3 100 0.0 WNW 11 15 6 8 1004.7 1004.8 14.2
24/03:00am 9.4 7.2 9.4 100 0.0 W 11 13 6 7 1004.8 1004.9 14.2
24/02:30am 9.6 7.5 9.6 100 0.0 WNW 11 13 6 7 1004.6 1004.7 14.2
24/02:00am 9.7 6.8 9.7 100 0.0 WNW 15 17 8 9 1004.3 - 14.2
24/01:30am 10.1 8.5 10.1 100 0.0 WNW 9 11 5 6 1003.9 1004.0 14.2
24/01:00am 10.2 8.2 10.2 100 0.0 WSW 11 15 6 8 1003.4 - 14.2
24/12:30am 10.5 9.0 10.5 100 0.0 WSW 9 11 5 6 1003.2 1003.3 14.2
24/12:00am 10.6 9.5 10.6 100 0.0 W 7 9 4 5 1003.2 1003.3 14.2
 
Date/Time
CST
Temp
°C
App
Temp
°C
Dew
Point
Rel
Hum
%
Delta-T
°C
Wind Press
QNH
hPa
Press
MSL
hPa
Rain
since 9 am
mm
Dir
 
Spd
km/h
Gust
km/h
Spd
kts
Gust
kts
23/11:30pm 10.6 10.8 10.6 100 0.0 CALM 0 0 0 0 1003.1 1003.2 14.2
23/11:00pm 10.6 9.1 10.6 100 0.0 NNE 9 17 5 9 1003.2 - 13.8
23/10:30pm 10.5 7.8 10.5 100 0.0 NNE 15 20 8 11 1003.2 1003.3 13.8
23/10:00pm 10.4 8.1 10.4 100 0.0 NE 13 20 7 11 1003.4 - 13.8
23/09:30pm 10.4 8.1 10.4 100 0.0 ENE 13 19 7 10 1003.7 1003.8 13.6
23/09:00pm 10.8 7.5 10.8 100 0.0 ENE 19 28 10 15 1004.1 1004.2 13.0
23/08:30pm 10.6 8.0 10.6 100 0.0 NE 15 20 8 11 1004.6 1004.7 12.4
23/08:00pm 10.3 7.6 10.3 100 0.0 ENE 15 20 8 11 1005.0 - 10.6
23/07:30pm 10.1 7.7 10.1 100 0.0 ENE 13 17 7 9 1005.3 1005.4 10.2
23/07:00pm 10.0 7.6 10.0 100 0.0 NE 13 20 7 11 1005.6 - 10.0
23/06:30pm 9.8 8.1 9.8 100 0.0 NNE 9 11 5 6 1005.9 1006.0 9.2
23/06:00pm 10.6 5.3 10.0 96 0.3 N 28 35 15 19 1006.1 1006.2 8.2
23/05:30pm 11.1 7.9 10.0 93 0.6 NE 17 28 9 15 1005.6 1005.7 5.8
23/05:00pm 10.5 7.2 9.4 93 0.6 NE 17 26 9 14 1005.6 - 5.6
23/04:30pm 10.8 7.0 9.2 90 0.8 NE 19 24 10 13 1005.8 1005.9 5.6
23/04:00pm 10.8 4.4 9.4 91 0.7 NNE 33 48 18 26 1005.9 - 5.6
23/03:30pm 11.6 6.6 11.1 97 0.3 NNE 28 35 15 19 1006.3 1006.4 5.2
23/03:00pm 11.6 8.2 11.1 97 0.3 NNE 20 30 11 16 1006.7 1006.8 5.0
23/02:30pm 11.8 7.1 10.5 92 0.7 N 26 33 14 18 1007.1 1007.2 4.0
23/02:00pm 11.8 9.5 10.5 92 0.7 NE 13 17 7 9 1007.2 - 3.6
23/01:30pm 11.9 7.8 10.0 88 1.0 NE 22 30 12 16 1007.4 1007.5 3.4
23/01:00pm 11.6 7.9 10.3 92 0.7 NE 20 28 11 15 1008.6 - 2.2
23/12:30pm 11.9 7.5 10.3 90 0.8 ENE 24 35 13 19 1008.6 1008.7 1.6
23/12:00pm 11.5 6.7 10.2 92 0.7 ENE 26 41 14 22 1009.4 1009.5 1.6
23/11:30am 11.7 6.9 10.3 91 0.7 ENE 26 33 14 18 1010.3 1010.4 1.2
23/11:00am 10.7 6.8 10.7 100 0.0 E 22 32 12 17 1011.1 - 1.2
23/10:30am 10.9 7.2 10.1 95 0.4 ENE 20 30 11 16 1012.2 1012.2 0.6
23/10:00am 11.1 6.6 10.2 94 0.5 ENE 24 33 13 18 1012.6 - 0.4
23/09:30am 11.1 6.9 9.9 92 0.6 NE 22 32 12 17 1012.9 1012.9 0.0
23/09:00am 10.7 7.2 10.2 97 0.3 ENE 19 28 10 15 1013.0 1013.0 2.2
23/08:30am 10.4 4.6 9.6 95 0.4 NE 30 41 16 22 1013.9 1013.9 1.6
23/08:00am 10.8 6.8 9.1 89 0.8 ENE 20 28 11 15 1013.6 - 0.8
23/07:30am 10.4 6.3 8.7 89 0.8 NNE 20 28 11 15 1014.2 1014.2 0.6
23/07:00am 11.3 6.6 6.2 71 2.4 NNE 20 28 11 15 1014.1 - 0.0
23/06:30am 11.3 8.6 5.4 67 2.7 ENE 9 11 5 6 1014.2 1014.2 0.0
23/06:00am 10.8 8.1 5.8 71 2.3 ENE 9 11 5 6 1014.3 1014.3 0.0
23/05:30am 11.3 8.4 4.7 64 3.0 ENE 9 11 5 6 1014.7 1014.7 0.0
23/05:00am 12.1 7.9 3.9 57 3.7 NNE 15 22 8 12 1015.1 - 0.0
23/04:30am 12.0 7.8 3.8 57 3.7 NNE 15 20 8 11 1015.0 1015.0 0.0
23/04:00am 12.3 7.8 4.0 57 3.7 NNE 17 22 9 12 1014.9 - 0.0
23/03:30am 12.8 8.1 3.2 52 4.3 NE 17 26 9 14 1015.1 1015.1 0.0
23/03:00am 12.9 7.7 3.6 53 4.2 NE 20 28 11 15 1015.0 1015.0 0.0
23/02:30am 13.1 7.9 3.7 53 4.2 NE 20 28 11 15 1015.5 1015.5 0.0
23/02:00am 12.7 7.9 4.4 57 3.8 NE 19 24 10 13 1016.0 - 0.0
23/01:30am 13.3 8.7 3.9 53 4.3 NE 17 24 9 13 1016.2 1016.2 0.0
23/01:00am 13.6 8.7 3.9 52 4.4 ENE 19 26 10 14 1016.5 - 0.0
23/12:30am 13.5 9.0 4.4 54 4.2 ENE 17 22 9 12 1016.8 1016.9 0.0
23/12:00am 13.2 9.2 5.1 58 3.8 ENE 15 22 8 12 1017.1 1017.2 0.0
 
Date/Time
CST
Temp
°C
App
Temp
°C
Dew
Point
Rel
Hum
%
Delta-T
°C
Wind Press
QNH
hPa
Press
MSL
hPa
Rain
since 9 am
mm
Dir
 
Spd
km/h
Gust
km/h
Spd
kts
Gust
kts
22/11:30pm 12.5 8.7 5.9 64 3.1 ENE 15 20 8 11 1017.6 1017.7 0.0
22/11:00pm 11.9 8.4 7.0 72 2.4 E 15 19 8 10 1018.0 - 0.0
22/10:30pm 12.3 9.2 7.2 71 2.5 ENE 13 19 7 10 1018.4 1018.5 0.0
22/10:00pm 11.8 8.3 7.3 74 2.2 ENE 15 20 8 11 1018.5 - 0.0
22/09:30pm 11.7 8.5 6.8 72 2.3 ENE 13 20 7 11 1018.2 1018.3 0.0
22/09:00pm 12.0 7.9 6.3 68 2.7 E 17 22 9 12 1018.5 1018.6 0.0
22/08:30pm 12.2 8.0 5.8 65 3.0 E 17 24 9 13 1018.6 1018.7 0.0
22/08:00pm 12.4 8.2 5.6 63 3.2 E 17 22 9 12 1018.8 - 0.0
22/07:30pm 12.3 7.8 5.9 65 3.0 E 19 24 10 13 1018.8 1018.9 0.0
22/07:00pm 12.3 8.1 5.9 65 3.0 E 17 22 9 12 1018.7 - 0.0
22/06:30pm 12.4 8.6 7.5 72 2.4 E 17 22 9 12 1018.9 1019.0 0.0
22/06:00pm 12.7 9.0 8.0 73 2.3 E 17 20 9 11 1019.0 1019.1 0.0
22/05:30pm 13.3 10.4 8.2 71 2.5 E 13 17 7 9 1018.7 1018.8 0.0
22/05:00pm 14.4 12.0 8.8 69 2.8 E 11 17 6 9 1018.6 - 0.0
22/04:30pm 16.2 13.6 9.4 64 3.5 E 13 17 7 9 1018.6 1018.7 0.0
22/04:00pm 17.7 15.0 8.8 56 4.6 E 13 17 7 9 1018.7 - 0.0
22/03:30pm 18.0 15.1 8.3 53 5.0 ENE 13 20 7 11 1018.5 1018.6 0.0
22/03:00pm 18.6 16.5 8.3 51 5.3 ENE 9 15 5 8 1018.7 1018.8 0.0
22/02:30pm 18.5 15.8 5.7 43 6.3 NE 9 13 5 7 1019.1 1019.2 0.0
22/02:00pm 18.2 14.7 5.4 43 6.2 NE 13 17 7 9 1019.1 - 0.0
22/01:30pm 18.3 15.7 7.7 50 5.4 NE 11 17 6 9 1019.6 1019.7 0.0
22/01:00pm 17.4 13.2 5.7 46 5.7 NNE 17 20 9 11 1020.5 - 0.0
22/12:30pm 17.1 13.8 6.6 50 5.2 NNE 13 20 7 11 1021.1 1021.2 0.0
22/12:00pm 16.8 13.2 6.6 51 5.0 NNE 15 20 8 11 1021.4 1021.5 0.0
22/11:30am 16.0 12.2 5.9 51 4.9 NE 15 19 8 10 1021.9 1022.0 0.0
22/11:00am 15.4 12.3 7.2 58 4.1 NE 13 19 7 10 1022.3 - 0.0
22/10:30am 14.7 11.9 6.8 59 3.8 NE 11 17 6 9 1022.7 1022.8 0.0
22/10:00am 13.7 11.3 6.8 63 3.3 NE 9 13 5 7 1022.8 - 0.0
22/09:30am 12.5 9.9 5.9 64 3.1 NE 9 11 5 6 1022.7 1022.8 0.0
22/09:00am 9.6 8.7 6.1 79 1.6 CALM 0 0 0 0 1022.6 1022.7 0.0
22/08:30am 8.2 7.3 6.0 86 1.0 CALM 0 0 0 0 1022.4 1022.5 0.0
22/08:00am 5.8 4.5 4.1 89 0.7 CALM 0 0 0 0 1022.3 - 0.0
22/07:30am 5.1 3.1 4.2 94 0.4 E 4 7 2 4 1022.3 1022.4 0.0
22/07:00am 4.8 1.9 4.8 100 0.0 E 9 11 5 6 1022.0 - 0.0
22/06:30am 4.2 1.6 4.2 100 0.0 E 7 9 4 5 1021.7 1021.8 0.0
22/06:00am 4.7 2.4 4.7 100 0.0 SE 6 7 3 4 1021.5 1021.6 0.0
22/05:30am 4.4 2.0 4.4 100 0.0 SSE 6 9 3 5 1021.2 1021.3 0.0
22/05:00am 4.3 2.3 4.3 100 0.0 S 4 7 2 4 1021.1 - 0.0
22/04:30am 6.0 3.9 5.6 97 0.2 NNE 6 7 3 4 1021.0 1021.1 0.0
22/04:00am 6.3 4.1 5.1 92 0.5 NNE 6 7 3 4 1021.0 - 0.0
22/03:30am 6.0 3.7 5.0 93 0.4 ESE 6 7 3 4 1021.0 1021.1 0.0
22/03:00am 7.6 5.3 4.7 82 1.3 ENE 6 7 3 4 1021.1 1021.2 0.0
22/02:30am 7.7 5.2 5.0 83 1.2 NE 7 7 4 4 1021.0 1021.1 0.0
22/02:00am 8.0 5.2 5.3 83 1.2 NE 9 11 5 6 1021.1 - 0.0
22/01:30am 8.2 5.5 5.5 83 1.2 NE 9 11 5 6 1021.0 1021.1 0.0
22/01:00am 8.9 6.3 6.0 82 1.3 NE 9 11 5 6 1021.3 - 0.0
22/12:30am 9.6 7.4 6.3 80 1.5 NE 7 11 4 6 1021.4 1021.5 0.0
22/12:00am 9.8 7.6 6.3 79 1.6 ENE 7 9 4 5 1021.7 1021.8 0.0
 
Date/Time
CST
Temp
°C
App
Temp
°C
Dew
Point
Rel
Hum
%
Delta-T
°C
Wind Press
QNH
hPa
Press
MSL
hPa
Rain
since 9 am
mm
Dir
 
Spd
km/h
Gust
km/h
Spd
kts
Gust
kts
21/11:30pm 10.0 7.1 6.5 79 1.6 NE 11 13 6 7 1021.8 1021.9 0.0
21/11:00pm 9.5 7.1 7.1 85 1.1 NNE 9 11 5 6 1021.9 - 0.0
21/10:30pm 8.8 6.9 7.4 91 0.7 NNE 7 9 4 5 1021.8 1021.9 0.0
21/10:00pm 9.2 6.4 6.8 85 1.1 NE 11 13 6 7 1021.7 - 0.0

Other Formats:

Comma delimited format used in spreadsheet applications
http://www.bom.gov.au/fwo/IDS60801/IDS60801.95663.axf

JavaScript Object Notation format (JSON) in row-major order
http://www.bom.gov.au/fwo/IDS60801/IDS60801.95663.json